Time;durP1;ratioP1;P1;durP2;ratioP2;P2;SDS_P1;SDS_P2;PMS_P1;PMS_P2;Temp;Humidity;BMP_temperature;BMP_pressure;BME280_temperature;BME280_humidity;BME280_pressure;Samples;Min_cycle;Max_cycle;Signal;HPM_P1;HPM_P2
2021/12/30 00:00:21;;;;;;;30.05;7.82;;;;;;;;;;4749433;30;20044;-88
2021/12/30 00:02:47;;;;;;;30.90;7.35;;;;;;;;;;4747771;30;20071;-85
2021/12/30 00:05:13;;;;;;;32.97;8.43;;;;;;;;;;4748991;30;20027;-87
2021/12/30 00:07:39;;;;;;;31.48;7.97;;;;;;;;;;4747142;30;20028;-87
2021/12/30 00:10:05;;;;;;;28.10;6.95;;;;;;;;;;4754203;30;20035;-86
2021/12/30 00:12:31;;;;;;;31.42;7.03;;;;;;;;;;4760403;29;20167;-87
2021/12/30 00:14:56;;;;;;;30.85;6.95;;;;;;;;;;4747936;30;20028;-87
2021/12/30 00:17:22;;;;;;;29.17;7.05;;;;;;;;;;4747986;30;20036;-86
2021/12/30 00:19:47;;;;;;;28.10;6.70;;;;;;;;;;4748602;30;20048;-87
2021/12/30 00:22:13;;;;;;;28.20;6.53;;;;;;;;;;4766384;30;20036;-88
2021/12/30 00:24:38;;;;;;;29.02;6.88;;;;;;;;;;4754487;30;20070;-86
2021/12/30 00:27:04;;;;;;;35.30;7.50;;;;;;;;;;4750054;30;20028;-86
2021/12/30 00:29:29;;;;;;;29.60;7.95;;;;;;;;;;4745100;30;20024;-86
2021/12/30 00:31:55;;;;;;;35.72;7.90;;;;;;;;;;4746665;30;20032;-85
2021/12/30 00:34:20;;;;;;;36.95;7.85;;;;;;;;;;4748301;30;20029;-87
2021/12/30 00:36:46;;;;;;;31.38;7.47;;;;;;;;;;4762713;30;20036;-87
2021/12/30 00:39:11;;;;;;;25.77;6.95;;;;;;;;;;4751142;30;20481;-86
2021/12/30 00:41:37;;;;;;;29.50;7.20;;;;;;;;;;4755799;30;20032;-86
2021/12/30 00:44:03;;;;;;;27.45;6.57;;;;;;;;;;4751642;30;20489;-85
2021/12/30 00:46:29;;;;;;;26.30;6.97;;;;;;;;;;4752843;30;20028;-87
2021/12/30 00:48:54;;;;;;;32.72;6.15;;;;;;;;;;4751292;30;20036;-86
2021/12/30 00:51:19;;;;;;;36.28;8.23;;;;;;;;;;4765609;30;20044;-86
2021/12/30 00:53:45;;;;;;;29.08;7.80;;;;;;;;;;4750465;30;20040;-88
2021/12/30 00:56:11;;;;;;;33.45;8.27;;;;;;;;;;4750824;30;20077;-88
2021/12/30 00:58:36;;;;;;;34.35;8.20;;;;;;;;;;4751177;30;20028;-88
2021/12/30 01:01:04;;;;;;;35.75;8.90;;;;;;;;;;4750817;30;20427;-87
2021/12/30 01:03:34;;;;;;;30.42;8.82;;;;;;;;;;4734917;30;20036;-87
2021/12/30 01:06:00;;;;;;;28.63;8.23;;;;;;;;;;4750131;30;20401;-87
2021/12/30 01:08:25;;;;;;;35.63;10.10;;;;;;;;;;4767476;30;20038;-88
2021/12/30 01:10:51;;;;;;;39.90;9.82;;;;;;;;;;4735392;30;20046;-87
2021/12/30 01:13:23;;;;;;;42.03;8.75;;;;;;;;;;4750913;30;20083;-85
2021/12/30 01:16:17;;;;;;;39.03;9.48;;;;;;;;;;4749509;30;20182;-87
2021/12/30 01:18:53;;;;;;;35.55;10.18;;;;;;;;;;4750729;30;20079;-87
2021/12/30 01:21:19;;;;;;;40.20;10.80;;;;;;;;;;4764087;30;20038;-86
2021/12/30 01:23:45;;;;;;;45.75;11.38;;;;;;;;;;4765388;30;20036;-88
2021/12/30 01:26:10;;;;;;;37.05;10.25;;;;;;;;;;4750795;30;20047;-86
2021/12/30 01:28:36;;;;;;;36.13;10.25;;;;;;;;;;4750626;30;20028;-86
2021/12/30 01:31:03;;;;;;;37.70;11.57;;;;;;;;;;4749134;30;20119;-87
2021/12/30 01:33:28;;;;;;;42.53;11.48;;;;;;;;;;4749686;30;20040;-86
2021/12/30 01:35:53;;;;;;;38.20;10.35;;;;;;;;;;4749421;30;20032;-86
2021/12/30 01:38:19;;;;;;;41.55;11.25;;;;;;;;;;4734488;30;20039;-86
2021/12/30 01:40:49;;;;;;;32.85;11.23;;;;;;;;;;4750718;30;20119;-87
2021/12/30 01:43:15;;;;;;;40.55;11.02;;;;;;;;;;4753017;30;20055;-87
2021/12/30 01:45:42;;;;;;;37.92;12.00;;;;;;;;;;4750582;30;20039;-88
2021/12/30 01:48:08;;;;;;;38.83;10.45;;;;;;;;;;4747006;30;20096;-86
2021/12/30 01:50:34;;;;;;;47.72;12.07;;;;;;;;;;4749693;30;20511;-86
2021/12/30 01:53:00;;;;;;;48.65;12.43;;;;;;;;;;4733912;30;20028;-87
2021/12/30 01:55:39;;;;;;;38.40;10.80;;;;;;;;;;4740315;30;20036;-88
2021/12/30 01:58:05;;;;;;;39.40;11.90;;;;;;;;;;4749538;30;20040;-86
2021/12/30 02:00:32;;;;;;;37.22;11.23;;;;;;;;;;4749681;30;20032;-87
2021/12/30 02:02:58;;;;;;;46.78;12.13;;;;;;;;;;4749148;30;20032;-86
2021/12/30 02:05:24;;;;;;;47.45;12.10;;;;;;;;;;4748735;30;20519;-86
2021/12/30 02:07:49;;;;;;;38.97;12.07;;;;;;;;;;4748186;30;20036;-88
2021/12/30 02:10:15;;;;;;;33.13;11.68;;;;;;;;;;4751047;30;20024;-87
2021/12/30 02:12:42;;;;;;;42.00;13.07;;;;;;;;;;4751074;30;20384;-86
2021/12/30 02:15:12;;;;;;;32.33;11.57;;;;;;;;;;4750822;30;20040;-88
2021/12/30 02:17:38;;;;;;;40.85;11.65;;;;;;;;;;4747972;30;20123;-85
2021/12/30 02:20:08;;;;;;;34.22;10.68;;;;;;;;;;4749947;30;20031;-86
2021/12/30 02:22:34;;;;;;;39.20;10.60;;;;;;;;;;4748932;30;20036;-86
2021/12/30 02:24:59;;;;;;;37.00;10.73;;;;;;;;;;4734321;30;20082;-85
2021/12/30 02:27:26;;;;;;;31.02;11.30;;;;;;;;;;4750159;30;20040;-85
2021/12/30 02:29:52;;;;;;;31.45;10.82;;;;;;;;;;4766465;30;20178;-87
2021/12/30 02:32:21;;;;;;;36.00;11.45;;;;;;;;;;4735036;30;20120;-89
2021/12/30 02:34:46;;;;;;;34.40;11.23;;;;;;;;;;4750116;30;20036;-86
2021/12/30 02:37:15;;;;;;;31.55;10.60;;;;;;;;;;4754689;30;20043;-87
2021/12/30 02:39:43;;;;;;;37.70;11.95;;;;;;;;;;4758862;30;20094;-86
2021/12/30 02:42:09;;;;;;;35.58;11.32;;;;;;;;;;4766862;30;20040;-86
2021/12/30 02:44:35;;;;;;;37.97;10.88;;;;;;;;;;4750605;30;20042;-88
2021/12/30 02:47:01;;;;;;;34.47;11.02;;;;;;;;;;4752785;30;20028;-86
2021/12/30 02:49:26;;;;;;;34.92;10.95;;;;;;;;;;4775739;29;20028;-86
2021/12/30 02:51:52;;;;;;;37.97;10.60;;;;;;;;;;4737825;30;20050;-87
2021/12/30 02:54:17;;;;;;;32.53;10.45;;;;;;;;;;4751547;30;20047;-87
2021/12/30 02:56:46;;;;;;;36.33;11.02;;;;;;;;;;4752505;30;20044;-88
2021/12/30 02:59:13;;;;;;;32.95;10.05;;;;;;;;;;4752341;30;20034;-85
2021/12/30 03:01:39;;;;;;;29.98;10.55;;;;;;;;;;4753131;30;20123;-88
2021/12/30 03:04:07;;;;;;;34.40;11.05;;;;;;;;;;4754016;30;20115;-85
2021/12/30 03:06:33;;;;;;;30.85;10.75;;;;;;;;;;4753800;30;20098;-89
2021/12/30 03:08:59;;;;;;;28.98;10.52;;;;;;;;;;4756540;30;20028;-88
2021/12/30 03:11:25;;;;;;;29.27;10.65;;;;;;;;;;4753077;30;20409;-87
2021/12/30 03:13:53;;;;;;;35.30;11.80;;;;;;;;;;4754006;30;20032;-86
2021/12/30 03:16:32;;;;;;;36.97;12.15;;;;;;;;;;4749489;30;20413;-88
2021/12/30 03:18:58;;;;;;;33.17;11.13;;;;;;;;;;4752972;30;20028;-86
2021/12/30 03:21:24;;;;;;;37.53;11.65;;;;;;;;;;4749961;30;20028;-87
2021/12/30 03:23:51;;;;;;;31.15;11.30;;;;;;;;;;4736875;30;20036;-88
2021/12/30 03:26:17;;;;;;;34.33;12.10;;;;;;;;;;4750766;30;20060;-85
2021/12/30 03:28:44;;;;;;;34.60;12.30;;;;;;;;;;4752733;30;20020;-84
2021/12/30 03:31:12;;;;;;;34.10;12.98;;;;;;;;;;4752372;30;20118;-85
2021/12/30 03:33:38;;;;;;;34.42;12.05;;;;;;;;;;4751174;30;20040;-89
2021/12/30 03:36:05;;;;;;;32.67;12.77;;;;;;;;;;4751214;30;20500;-87
2021/12/30 03:38:34;;;;;;;32.15;13.20;;;;;;;;;;4753109;30;20048;-85
2021/12/30 03:41:04;;;;;;;34.95;13.63;;;;;;;;;;4763897;30;20089;-83
2021/12/30 03:43:29;;;;;;;37.92;12.73;;;;;;;;;;4752451;30;20070;-84
2021/12/30 03:45:55;;;;;;;39.50;13.38;;;;;;;;;;4750510;30;20056;-84
2021/12/30 03:48:23;;;;;;;34.67;13.48;;;;;;;;;;4748793;30;20043;-85
2021/12/30 03:50:51;;;;;;;33.03;13.10;;;;;;;;;;4761831;30;20485;-84
2021/12/30 03:53:16;;;;;;;30.75;12.10;;;;;;;;;;4750350;30;20066;-85
2021/12/30 03:55:43;;;;;;;27.77;12.55;;;;;;;;;;4747478;30;20063;-88
2021/12/30 03:58:09;;;;;;;28.67;11.80;;;;;;;;;;4747023;30;20036;-85
2021/12/30 04:00:37;;;;;;;29.88;12.02;;;;;;;;;;4747978;30;20047;-89
2021/12/30 04:03:02;;;;;;;27.80;11.25;;;;;;;;;;4748813;30;20118;-88
2021/12/30 04:05:28;;;;;;;30.88;10.93;;;;;;;;;;4751476;30;20127;-87
2021/12/30 04:07:53;;;;;;;26.27;11.25;;;;;;;;;;4747212;30;20097;-88
2021/12/30 04:10:23;;;;;;;25.65;10.63;;;;;;;;;;4732438;30;20047;-84
2021/12/30 04:12:50;;;;;;;26.02;11.38;;;;;;;;;;4749438;30;20040;-88
2021/12/30 04:15:16;;;;;;;23.80;10.82;;;;;;;;;;4745719;30;20401;-88
2021/12/30 04:17:43;;;;;;;26.70;10.60;;;;;;;;;;4752410;30;20032;-88
2021/12/30 04:20:11;;;;;;;19.23;9.38;;;;;;;;;;4751693;30;20033;-88
2021/12/30 04:22:38;;;;;;;18.40;9.75;;;;;;;;;;4749148;30;20042;-86
2021/12/30 04:25:06;;;;;;;20.85;10.23;;;;;;;;;;4749843;30;20028;-88
2021/12/30 04:27:32;;;;;;;21.33;9.52;;;;;;;;;;4746879;30;20044;-83
2021/12/30 04:29:57;;;;;;;19.25;9.15;;;;;;;;;;4751462;30;20111;-84
2021/12/30 04:32:22;;;;;;;17.05;8.70;;;;;;;;;;4764529;30;20846;-84
2021/12/30 04:34:48;;;;;;;20.73;9.95;;;;;;;;;;4749879;30;20040;-91
2021/12/30 04:37:13;;;;;;;18.48;9.25;;;;;;;;;;4750801;30;20070;-89
2021/12/30 04:39:39;;;;;;;19.25;9.45;;;;;;;;;;4752481;30;20036;-85
2021/12/30 04:42:04;;;;;;;17.02;8.98;;;;;;;;;;4750111;30;20547;-89
2021/12/30 04:44:30;;;;;;;18.42;8.70;;;;;;;;;;4748488;30;20122;-84
2021/12/30 04:46:56;;;;;;;11.60;6.88;;;;;;;;;;4750779;30;20493;-90
2021/12/30 04:49:23;;;;;;;11.10;5.90;;;;;;;;;;4750305;30;20125;-90
2021/12/30 04:51:49;;;;;;;8.55;4.72;;;;;;;;;;4750656;30;20489;-86
2021/12/30 04:54:14;;;;;;;7.13;4.18;;;;;;;;;;4749976;30;20127;-85
2021/12/30 04:56:39;;;;;;;6.60;4.18;;;;;;;;;;4751427;30;20481;-89
2021/12/30 04:59:05;;;;;;;7.03;3.75;;;;;;;;;;4746245;30;20047;-88
2021/12/30 05:01:30;;;;;;;6.18;3.78;;;;;;;;;;4747721;30;20036;-84
2021/12/30 05:03:56;;;;;;;7.00;3.65;;;;;;;;;;4752640;30;20028;-89
2021/12/30 05:06:21;;;;;;;6.40;3.30;;;;;;;;;;4747259;30;20485;-88
2021/12/30 05:08:46;;;;;;;7.63;4.22;;;;;;;;;;4749524;30;20024;-88
2021/12/30 05:11:12;;;;;;;9.48;4.78;;;;;;;;;;4751212;30;20062;-85
2021/12/30 05:13:38;;;;;;;10.07;5.40;;;;;;;;;;4750554;30;20075;-85
2021/12/30 05:16:03;;;;;;;13.10;7.15;;;;;;;;;;4750937;30;20042;-90
2021/12/30 05:18:33;;;;;;;13.50;7.38;;;;;;;;;;4749551;30;20094;-89
2021/12/30 05:21:02;;;;;;;13.90;7.47;;;;;;;;;;4751470;30;20036;-85
2021/12/30 05:23:28;;;;;;;19.23;8.80;;;;;;;;;;4763970;30;20055;-84
2021/12/30 05:25:54;;;;;;;14.70;8.35;;;;;;;;;;4748009;30;20063;-85
2021/12/30 05:28:20;;;;;;;16.95;8.65;;;;;;;;;;4766952;30;20559;-89
2021/12/30 05:30:45;;;;;;;17.65;8.35;;;;;;;;;;4762169;30;20227;-87
2021/12/30 05:33:11;;;;;;;15.75;8.07;;;;;;;;;;4747624;30;20089;-84
2021/12/30 05:35:36;;;;;;;15.73;8.35;;;;;;;;;;4748174;30;20057;-89
2021/12/30 05:38:03;;;;;;;15.80;9.07;;;;;;;;;;4749877;30;20040;-85
2021/12/30 05:40:29;;;;;;;15.82;8.35;;;;;;;;;;4747693;30;20042;-86
2021/12/30 05:42:55;;;;;;;17.95;7.88;;;;;;;;;;4748988;30;20492;-89
2021/12/30 05:45:21;;;;;;;15.70;8.07;;;;;;;;;;4748779;30;20038;-89
2021/12/30 05:47:48;;;;;;;14.88;6.97;;;;;;;;;;4749960;30;20036;-88
2021/12/30 05:50:17;;;;;;;12.48;6.90;;;;;;;;;;4750436;30;20482;-89
2021/12/30 05:52:42;;;;;;;13.00;6.43;;;;;;;;;;4750120;30;20040;-89
2021/12/30 05:55:08;;;;;;;11.30;6.32;;;;;;;;;;4764679;30;20443;-85
2021/12/30 05:57:33;;;;;;;11.95;6.28;;;;;;;;;;4749761;30;20037;-86
2021/12/30 05:59:59;;;;;;;12.23;5.88;;;;;;;;;;4763885;30;20029;-84
2021/12/30 06:02:25;;;;;;;12.23;6.47;;;;;;;;;;4763656;30;20039;-90
2021/12/30 06:04:50;;;;;;;12.38;6.22;;;;;;;;;;4750466;30;20420;-85
2021/12/30 06:07:16;;;;;;;12.93;7.15;;;;;;;;;;4749431;30;20032;-84
2021/12/30 06:09:41;;;;;;;13.23;7.57;;;;;;;;;;4752455;30;20401;-88
2021/12/30 06:12:07;;;;;;;13.60;7.72;;;;;;;;;;4750202;30;20071;-89
2021/12/30 06:14:33;;;;;;;15.27;8.00;;;;;;;;;;4753636;30;20129;-89
2021/12/30 06:16:58;;;;;;;16.45;8.52;;;;;;;;;;4752694;30;20044;-89
2021/12/30 06:19:24;;;;;;;15.13;8.23;;;;;;;;;;4752047;30;20763;-88
2021/12/30 06:21:49;;;;;;;12.68;7.53;;;;;;;;;;4755222;30;20040;-85
2021/12/30 06:24:14;;;;;;;16.27;7.63;;;;;;;;;;4754216;30;20047;-85
2021/12/30 06:26:40;;;;;;;13.57;7.45;;;;;;;;;;4751667;30;20043;-88
2021/12/30 06:29:05;;;;;;;12.73;6.40;;;;;;;;;;4754380;30;20029;-89
2021/12/30 06:31:30;;;;;;;12.80;5.88;;;;;;;;;;4750701;30;20048;-86
2021/12/30 06:33:56;;;;;;;12.63;6.00;;;;;;;;;;4777703;30;20119;-85
2021/12/30 06:36:21;;;;;;;14.25;6.57;;;;;;;;;;4753756;30;20043;-86
2021/12/30 06:38:48;;;;;;;13.32;6.28;;;;;;;;;;4751737;30;20170;-89
2021/12/30 06:41:14;;;;;;;17.02;6.93;;;;;;;;;;4752353;30;20036;-88
2021/12/30 06:43:39;;;;;;;12.90;5.72;;;;;;;;;;4750431;30;20038;-89
2021/12/30 06:46:05;;;;;;;15.10;6.38;;;;;;;;;;4765707;30;20046;-87
2021/12/30 06:48:31;;;;;;;11.77;6.10;;;;;;;;;;4753970;30;20521;-88
2021/12/30 06:50:59;;;;;;;13.07;6.25;;;;;;;;;;4753250;30;20040;-89
2021/12/30 06:53:24;;;;;;;14.43;6.97;;;;;;;;;;4751808;30;20181;-87
2021/12/30 06:55:52;;;;;;;14.98;6.57;;;;;;;;;;4754682;30;20474;-88
2021/12/30 06:58:18;;;;;;;15.82;7.28;;;;;;;;;;4754593;30;20122;-89
2021/12/30 07:00:44;;;;;;;18.75;6.95;;;;;;;;;;4754990;30;20039;-85
2021/12/30 07:03:09;;;;;;;14.65;6.72;;;;;;;;;;4754430;30;20098;-84
2021/12/30 07:05:35;;;;;;;14.20;6.57;;;;;;;;;;4752317;30;20032;-88
2021/12/30 07:08:00;;;;;;;14.73;6.97;;;;;;;;;;4751861;30;20048;-85
2021/12/30 07:10:27;;;;;;;15.30;6.78;;;;;;;;;;4767304;30;20036;-88
2021/12/30 07:12:53;;;;;;;15.98;6.63;;;;;;;;;;4766133;30;20412;-88
2021/12/30 07:15:18;;;;;;;13.45;6.00;;;;;;;;;;4751804;30;20036;-89
2021/12/30 07:17:44;;;;;;;12.95;6.15;;;;;;;;;;4751128;30;20036;-88
2021/12/30 07:20:10;;;;;;;12.27;5.82;;;;;;;;;;4754701;30;20127;-85
2021/12/30 07:22:36;;;;;;;13.23;5.43;;;;;;;;;;4757157;30;20108;-88
2021/12/30 07:25:02;;;;;;;9.18;4.80;;;;;;;;;;4734531;30;20032;-85
2021/12/30 07:27:27;;;;;;;12.02;4.97;;;;;;;;;;4751223;30;20032;-85
2021/12/30 07:29:53;;;;;;;10.40;4.60;;;;;;;;;;4762960;30;20035;-84
2021/12/30 07:32:18;;;;;;;8.05;3.85;;;;;;;;;;4750497;30;21609;-85
2021/12/30 07:34:43;;;;;;;9.77;4.65;;;;;;;;;;4750540;30;20036;-85
2021/12/30 07:37:09;;;;;;;8.32;4.40;;;;;;;;;;4753669;30;20032;-85
2021/12/30 07:39:34;;;;;;;7.28;3.55;;;;;;;;;;4751502;30;20063;-85
2021/12/30 07:41:59;;;;;;;8.60;4.00;;;;;;;;;;4750359;30;20449;-87
2021/12/30 07:44:25;;;;;;;7.72;3.50;;;;;;;;;;4750270;30;20032;-88
2021/12/30 07:46:50;;;;;;;7.30;3.53;;;;;;;;;;4737359;30;20122;-89
2021/12/30 07:49:15;;;;;;;6.25;3.42;;;;;;;;;;4749991;30;20031;-84
2021/12/30 07:51:41;;;;;;;7.18;3.35;;;;;;;;;;4750694;30;20404;-86
2021/12/30 07:54:06;;;;;;;6.40;3.15;;;;;;;;;;4750460;30;20060;-88
2021/12/30 07:57:02;;;;;;;;;;;;;;;;;;;;;
2021/12/30 07:59:28;;;;;;;5.32;2.80;;;;;;;;;;4749519;30;20036;-88
2021/12/30 08:01:53;;;;;;;7.00;3.20;;;;;;;;;;4753492;30;20049;-89
2021/12/30 08:04:19;;;;;;;5.28;2.85;;;;;;;;;;4766954;30;20085;-87
2021/12/30 08:06:44;;;;;;;8.90;3.00;;;;;;;;;;4766785;30;20575;-85
2021/12/30 08:09:14;;;;;;;7.80;2.90;;;;;;;;;;4753049;30;20035;-88
2021/12/30 08:11:40;;;;;;;8.43;2.65;;;;;;;;;;4755505;30;20107;-87
2021/12/30 08:14:05;;;;;;;8.68;3.30;;;;;;;;;;4750945;30;20024;-87
2021/12/30 08:16:31;;;;;;;5.22;3.15;;;;;;;;;;4754393;30;20070;-85
2021/12/30 08:18:58;;;;;;;4.95;2.90;;;;;;;;;;4740316;30;20401;-86
2021/12/30 08:21:24;;;;;;;4.82;2.90;;;;;;;;;;4766720;30;20032;-84
2021/12/30 08:23:51;;;;;;;7.68;2.92;;;;;;;;;;4754243;30;20036;-84
2021/12/30 08:26:19;;;;;;;6.68;2.92;;;;;;;;;;4754433;30;20040;-86
2021/12/30 08:28:45;;;;;;;6.22;3.33;;;;;;;;;;4752051;30;20111;-85
2021/12/30 08:31:11;;;;;;;6.35;3.10;;;;;;;;;;4753035;30;20226;-85
2021/12/30 08:33:37;;;;;;;6.90;3.50;;;;;;;;;;4752377;30;20036;-84
2021/12/30 08:36:02;;;;;;;5.07;3.55;;;;;;;;;;4752564;30;20035;-88
2021/12/30 08:38:28;;;;;;;7.43;3.30;;;;;;;;;;4750995;30;20122;-88
2021/12/30 08:40:53;;;;;;;6.82;3.10;;;;;;;;;;4749667;30;20039;-84
2021/12/30 08:43:19;;;;;;;6.13;3.40;;;;;;;;;;4752159;30;20043;-86
2021/12/30 08:45:49;;;;;;;8.15;3.08;;;;;;;;;;4755213;30;20055;-89
2021/12/30 08:48:15;;;;;;;5.95;2.95;;;;;;;;;;4765190;30;20040;-88
2021/12/30 08:50:41;;;;;;;8.27;3.40;;;;;;;;;;4761642;30;20036;-85
2021/12/30 08:53:09;;;;;;;6.90;3.10;;;;;;;;;;4735638;30;20508;-88
2021/12/30 08:55:36;;;;;;;6.88;3.33;;;;;;;;;;4736195;30;20040;-89
2021/12/30 08:58:03;;;;;;;10.23;3.97;;;;;;;;;;4747712;30;20047;-86
2021/12/30 09:00:31;;;;;;;7.50;3.80;;;;;;;;;;4749914;30;20559;-84
2021/12/30 09:02:58;;;;;;;9.75;4.45;;;;;;;;;;4780682;29;20063;-84
2021/12/30 09:05:24;;;;;;;9.55;4.88;;;;;;;;;;4734446;30;20049;-88
2021/12/30 09:07:51;;;;;;;7.28;4.60;;;;;;;;;;4748993;30;20048;-85
2021/12/30 09:10:17;;;;;;;9.60;4.93;;;;;;;;;;4763693;30;20097;-87
2021/12/30 09:12:49;;;;;;;9.68;4.80;;;;;;;;;;4747725;30;20573;-89
2021/12/30 09:15:17;;;;;;;7.75;4.90;;;;;;;;;;4747499;30;20051;-87
2021/12/30 09:17:45;;;;;;;7.70;4.63;;;;;;;;;;4747021;30;20165;-87
2021/12/30 09:20:12;;;;;;;10.45;4.80;;;;;;;;;;4748330;30;20396;-85
2021/12/30 09:22:38;;;;;;;10.52;5.10;;;;;;;;;;4749617;30;20039;-84
2021/12/30 09:25:07;;;;;;;12.20;5.32;;;;;;;;;;4750013;30;20115;-85
2021/12/30 09:27:38;;;;;;;12.70;5.65;;;;;;;;;;4760975;30;20386;-88
2021/12/30 09:30:06;;;;;;;12.27;6.20;;;;;;;;;;4768305;30;20485;-88
2021/12/30 09:32:31;;;;;;;13.82;5.53;;;;;;;;;;4761162;30;20048;-89
2021/12/30 09:34:57;;;;;;;12.00;4.80;;;;;;;;;;4747904;30;20036;-85
2021/12/30 09:37:22;;;;;;;13.65;5.47;;;;;;;;;;4767766;30;20034;-88
2021/12/30 09:39:47;;;;;;;12.60;5.63;;;;;;;;;;4748528;30;20244;-88
2021/12/30 09:42:15;;;;;;;16.67;5.75;;;;;;;;;;4760428;30;20040;-84
2021/12/30 09:44:40;;;;;;;12.50;5.25;;;;;;;;;;4761252;30;20025;-84
2021/12/30 09:47:06;;;;;;;11.30;5.50;;;;;;;;;;4752194;30;20086;-85
2021/12/30 09:49:32;;;;;;;18.50;5.55;;;;;;;;;;4762494;30;20084;-89
2021/12/30 09:51:57;;;;;;;15.98;5.80;;;;;;;;;;4745876;30;20032;-88
2021/12/30 09:54:23;;;;;;;14.18;5.43;;;;;;;;;;4744538;30;20067;-88
2021/12/30 09:56:51;;;;;;;17.48;5.80;;;;;;;;;;4764911;30;20294;-85
2021/12/30 09:59:17;;;;;;;14.05;4.97;;;;;;;;;;4745171;30;20401;-88
2021/12/30 10:01:43;;;;;;;16.23;3.80;;;;;;;;;;4747536;30;20047;-88
2021/12/30 10:04:10;;;;;;;15.30;5.50;;;;;;;;;;4750392;30;20047;-85
2021/12/30 10:07:02;;;;;;;12.65;4.80;;;;;;;;;;4754082;30;20036;-86
2021/12/30 10:10:03;;;;;;;13.57;5.13;;;;;;;;;;4748210;30;20104;-85
2021/12/30 10:16:04;;;;;;;11.82;5.10;;;;;;;;;;4732349;30;20047;-84
2021/12/30 10:19:05;;;;;;;14.07;5.93;;;;;;;;;;4697481;30;20049;-87
2021/12/30 10:22:06;;;;;;;16.95;4.93;;;;;;;;;;4709185;30;20041;-89
2021/12/30 10:24:38;;;;;;;12.43;4.28;;;;;;;;;;4708770;30;20046;-88
2021/12/30 10:27:07;;;;;;;11.30;4.40;;;;;;;;;;4685486;30;20042;-89
2021/12/30 10:32:37;;;;;;;10.98;4.60;;;;;;;;;;4702066;30;20090;-90
2021/12/30 10:35:11;;;;;;;11.45;4.05;;;;;;;;;;4714036;30;20032;-90
2021/12/30 10:38:10;;;;;;;11.57;4.22;;;;;;;;;;4722193;30;20412;-88
2021/12/30 10:40:45;;;;;;;14.73;4.93;;;;;;;;;;4746994;30;20048;-83
2021/12/30 10:46:13;;;;;;;9.63;4.00;;;;;;;;;;4733288;30;20040;-84
2021/12/30 10:49:25;;;;;;;;;;;;;;;;;;;;;
2021/12/30 10:52:12;;;;;;;8.88;3.33;;;;;;;;;;4729401;30;20045;-89
2021/12/30 10:54:40;;;;;;;12.85;3.55;;;;;;;;;;4718829;30;20049;-89
2021/12/30 10:57:12;;;;;;;11.73;3.35;;;;;;;;;;4734545;30;20029;-83
2021/12/30 11:02:42;;;;;;;13.50;3.72;;;;;;;;;;4733769;30;20045;-89
2021/12/30 11:05:13;;;;;;;11.32;3.90;;;;;;;;;;4732788;30;20071;-90
2021/12/30 11:08:16;;;;;;;11.50;3.80;;;;;;;;;;4727103;30;20044;-82
2021/12/30 11:10:44;;;;;;;17.75;4.43;;;;;;;;;;4746835;30;20052;-85
2021/12/30 11:13:14;;;;;;;12.50;3.97;;;;;;;;;;4748599;30;20135;-84
2021/12/30 11:15:45;;;;;;;11.95;3.95;;;;;;;;;;4735183;30;20043;-89
2021/12/30 11:18:26;;;;;;;15.75;4.82;;;;;;;;;;4735451;30;20064;-85
2021/12/30 11:21:44;;;;;;;14.02;3.90;;;;;;;;;;4736567;30;20045;-83
2021/12/30 11:24:15;;;;;;;12.05;4.05;;;;;;;;;;4737818;30;20029;-85
2021/12/30 11:26:47;;;;;;;14.20;4.65;;;;;;;;;;4735354;30;20409;-89
2021/12/30 11:29:18;;;;;;;14.10;4.00;;;;;;;;;;4732588;30;20024;-84
2021/12/30 11:31:47;;;;;;;11.85;3.65;;;;;;;;;;4735540;30;20064;-84
2021/12/30 11:34:47;;;;;;;15.82;5.28;;;;;;;;;;4737183;30;20024;-90
2021/12/30 11:37:19;;;;;;;17.48;4.20;;;;;;;;;;4702281;30;20383;-90
2021/12/30 11:39:52;;;;;;;13.18;3.75;;;;;;;;;;4685357;30;20037;-83
2021/12/30 11:42:22;;;;;;;18.17;4.72;;;;;;;;;;4686459;30;20049;-84
2021/12/30 11:45:19;;;;;;;15.75;3.90;;;;;;;;;;4714471;30;20091;-84
2021/12/30 11:48:35;;;;;;;;;;;;;;;;;;;;;
2021/12/30 11:51:23;;;;;;;10.88;3.83;;;;;;;;;;4683892;30;20047;-89
2021/12/30 11:57:19;;;;;;;13.00;4.22;;;;;;;;;;4696893;30;20052;-87
2021/12/30 11:59:50;;;;;;;15.35;4.72;;;;;;;;;;4697052;30;20041;-85
2021/12/30 12:02:52;;;;;;;16.88;4.82;;;;;;;;;;4695074;30;20049;-87
2021/12/30 12:05:53;;;;;;;14.23;4.80;;;;;;;;;;4708602;30;20078;-89
2021/12/30 12:08:29;;;;;;;11.27;4.50;;;;;;;;;;4697992;30;20041;-84
2021/12/30 12:11:24;;;;;;;14.27;4.32;;;;;;;;;;4715022;30;20056;-89
2021/12/30 12:14:29;;;;;;;12.10;3.80;;;;;;;;;;4714714;30;20127;-85
2021/12/30 12:17:00;;;;;;;8.77;3.63;;;;;;;;;;4727342;30;20490;-89
2021/12/30 12:19:55;;;;;;;9.40;3.55;;;;;;;;;;4732442;30;20040;-85
2021/12/30 12:22:29;;;;;;;11.63;4.20;;;;;;;;;;4779706;30;20043;-87
2021/12/30 12:25:26;;;;;;;10.00;3.92;;;;;;;;;;4749297;30;20139;-85
2021/12/30 12:27:56;;;;;;;8.95;2.63;;;;;;;;;;4749770;30;20082;-84
2021/12/30 12:30:56;;;;;;;9.07;2.83;;;;;;;;;;4748983;30;20035;-84
2021/12/30 12:33:32;;;;;;;10.55;2.92;;;;;;;;;;4749203;30;20067;-88
2021/12/30 12:35:59;;;;;;;11.13;2.90;;;;;;;;;;4748412;30;20047;-84
2021/12/30 12:39:04;;;;;;;7.75;2.78;;;;;;;;;;4761911;30;20028;-87
2021/12/30 12:41:35;;;;;;;8.73;3.13;;;;;;;;;;4749976;30;20071;-85
2021/12/30 12:44:32;;;;;;;10.60;2.83;;;;;;;;;;4751479;30;20513;-88
2021/12/30 12:46:59;;;;;;;9.70;3.15;;;;;;;;;;4757562;30;20031;-88
2021/12/30 12:49:33;;;;;;;6.78;3.10;;;;;;;;;;4752410;30;20435;-84
2021/12/30 12:52:01;;;;;;;9.52;3.30;;;;;;;;;;4749327;30;20036;-85
2021/12/30 12:55:00;;;;;;;7.95;3.22;;;;;;;;;;4749938;30;20039;-88
2021/12/30 12:57:31;;;;;;;8.90;3.17;;;;;;;;;;4751507;30;20036;-88
2021/12/30 13:00:00;;;;;;;10.60;3.30;;;;;;;;;;4765154;30;20405;-85
2021/12/30 13:02:31;;;;;;;7.55;2.97;;;;;;;;;;4751692;30;20089;-84
2021/12/30 13:05:30;;;;;;;;;;;;;;;;;;;;;
2021/12/30 13:08:05;;;;;;;6.10;2.92;;;;;;;;;;4750618;30;20489;-87
2021/12/30 13:10:39;;;;;;;8.85;3.33;;;;;;;;;;4764756;30;20024;-84
2021/12/30 13:13:05;;;;;;;9.90;3.17;;;;;;;;;;4746617;30;20906;-84
2021/12/30 13:15:39;;;;;;;8.85;3.17;;;;;;;;;;4762382;30;20040;-84
2021/12/30 13:18:33;;;;;;;11.20;3.30;;;;;;;;;;4747223;30;20036;-84
2021/12/30 13:21:35;;;;;;;;;;;;;;;;;;4760063;30;20469;-88
2021/12/30 13:24:06;;;;;;;9.98;3.40;;;;;;;;;;4763053;30;20392;-89
2021/12/30 13:26:39;;;;;;;8.98;3.90;;;;;;;;;;4749378;30;20382;-84
2021/12/30 13:29:05;;;;;;;8.02;3.70;;;;;;;;;;4754882;30;20519;-84
2021/12/30 13:31:37;;;;;;;8.05;3.90;;;;;;;;;;4761984;30;20032;-85
2021/12/30 13:34:05;;;;;;;6.95;3.75;;;;;;;;;;4770414;30;20064;-88
2021/12/30 13:36:43;;;;;;;11.15;3.95;;;;;;;;;;4750973;30;20028;-84
2021/12/30 13:39:11;;;;;;;10.30;3.75;;;;;;;;;;4748206;30;20452;-90
2021/12/30 13:41:37;;;;;;;6.25;2.85;;;;;;;;;;4755549;30;20043;-88
2021/12/30 13:44:12;;;;;;;13.45;2.90;;;;;;;;;;4736423;30;20032;-85
2021/12/30 13:46:37;;;;;;;8.88;2.67;;;;;;;;;;4759947;30;20095;-85
2021/12/30 13:49:09;;;;;;;6.50;2.80;;;;;;;;;;4752606;30;20057;-90
2021/12/30 13:51:41;;;;;;;10.98;2.50;;;;;;;;;;4750518;30;20067;-88
2021/12/30 13:54:09;;;;;;;7.63;2.40;;;;;;;;;;4748831;30;20424;-89
2021/12/30 13:57:09;;;;;;;4.57;2.03;;;;;;;;;;4749753;30;20378;-85
2021/12/30 13:59:42;;;;;;;8.52;1.90;;;;;;;;;;4748540;30;20043;-85
2021/12/30 14:02:12;;;;;;;9.38;2.22;;;;;;;;;;4754051;30;20028;-85
2021/12/30 14:04:40;;;;;;;6.72;1.98;;;;;;;;;;4754306;30;20082;-84
2021/12/30 14:07:17;;;;;;;7.50;2.50;;;;;;;;;;4889248;24;20098;-84
2021/12/30 14:10:11;;;;;;;7.53;2.20;;;;;;;;;;4806187;29;20030;-84
2021/12/30 14:13:17;;;;;;;6.65;1.85;;;;;;;;;;4801044;29;20072;-89
2021/12/30 14:15:42;;;;;;;5.65;1.63;;;;;;;;;;4801365;29;20104;-84
2021/12/30 14:18:14;;;;;;;6.95;2.30;;;;;;;;;;4799323;29;20035;-88
2021/12/30 14:20:45;;;;;;;7.13;2.90;;;;;;;;;;4799213;29;20035;-84
2021/12/30 14:23:48;;;;;;;8.25;2.55;;;;;;;;;;4799111;29;20542;-84
2021/12/30 14:26:44;;;;;;;8.77;2.38;;;;;;;;;;4814446;29;20126;-84
2021/12/30 14:29:19;;;;;;;4.25;1.73;;;;;;;;;;4803031;29;20034;-86
2021/12/30 14:32:05;;;;;;;;;;;;;;;;;;;;;
2021/12/30 14:34:48;;;;;;;6.38;2.00;;;;;;;;;;4819293;29;20048;-84
2021/12/30 14:37:23;;;;;;;;;;;;;;;;;;4806334;29;20121;-89
2021/12/30 14:40:15;;;;;;;;;;;;;;;;;;;;;
2021/12/30 14:42:47;;;;;;;7.47;1.85;;;;;;;;;;4817123;29;20030;-89
2021/12/30 14:45:19;;;;;;;9.00;1.60;;;;;;;;;;4823771;29;20026;-84
2021/12/30 14:48:19;;;;;;;5.57;1.65;;;;;;;;;;4807965;29;20121;-84
2021/12/30 14:50:47;;;;;;;7.18;1.83;;;;;;;;;;4808989;29;20026;-84
2021/12/30 14:53:23;;;;;;;6.20;1.92;;;;;;;;;;4821717;29;20095;-89
2021/12/30 14:55:49;;;;;;;5.47;1.75;;;;;;;;;;4805350;29;20030;-83
2021/12/30 14:58:19;;;;;;;5.03;1.70;;;;;;;;;;4807291;29;20022;-88
2021/12/30 15:00:52;;;;;;;5.38;1.83;;;;;;;;;;4808796;29;20026;-88
2021/12/30 15:03:20;;;;;;;8.70;2.30;;;;;;;;;;4819730;29;20030;-84
2021/12/30 15:05:50;;;;;;;8.13;3.30;;;;;;;;;;4808986;29;20125;-88
2021/12/30 15:08:21;;;;;;;11.45;2.10;;;;;;;;;;4816387;29;20096;-84
2021/12/30 15:10:53;;;;;;;8.10;2.03;;;;;;;;;;4807962;29;20039;-85
2021/12/30 15:13:21;;;;;;;8.05;2.17;;;;;;;;;;4813672;29;20038;-84